Latest Weather Observations for Eucla

IDW60801

Issued at 2:05 pm WST Thursday 24 July 2014 (issued every 30 minutes, with the page automatically refreshed every 10 minutes)

About weather observations | Map of weather stations | Latest weather observations for WA | Other Formats
Station Details ID: 011003 Name: EUCLA Lat: -31.68 Lon: 128.90 Height: 93.1 m
Data from the previous 72 hours. | See also: Recent months at Eucla
Date/Time
WST
Temp
°C
App
Temp
°C
Dew
Point
Rel
Hum
%
Delta-T
°C
Wind Press
QNH
hPa
Press
MSL
hPa
Rain
since 9 am
mm
Dir
 
Spd
km/h
Gust
km/h
Spd
kts
Gust
kts
24/02:00pm 16.2 11.5 7.7 57 4.3 W 22 39 12 21 1014.5 1014.5 0.0
24/01:30pm 16.5 11.6 8.5 59 4.1 W 24 37 13 20 1014.4 - 0.0
24/01:00pm 17.0 13.1 9.4 61 4.0 W 20 32 11 17 1014.2 1014.2 0.0
24/12:30pm 17.0 12.7 10.6 66 3.4 WNW 24 33 13 18 1014.3 - 0.0
24/12:00pm 16.7 13.5 10.1 65 3.5 WNW 17 28 9 15 1014.6 1014.6 0.0
24/11:30am 15.5 12.6 9.8 69 3.0 W 15 22 8 12 1015.0 - 0.0
24/11:00am 15.3 11.9 10.5 73 2.5 WNW 19 30 10 16 1015.5 1015.5 0.0
24/10:30am 14.3 10.7 9.7 74 2.4 WNW 19 30 10 16 1016.0 - 0.0
24/10:00am 14.1 10.7 10.5 79 1.9 W 19 30 10 16 1016.4 1016.5 0.0
24/09:30am 13.8 10.7 10.2 79 1.9 WNW 17 28 9 15 1016.3 - 0.0
24/09:00am 12.4 9.2 10.1 86 1.2 WNW 17 26 9 14 1016.4 1016.5 1.6
24/08:30am 10.7 7.8 9.5 92 0.6 NW 15 20 8 11 1016.1 - 1.6
24/08:00am 9.0 5.7 8.2 95 0.4 NW 15 24 8 13 1015.9 1015.9 1.6
24/07:30am 8.9 5.5 7.7 92 0.6 NW 15 20 8 11 1015.6 - 1.6
24/07:00am 8.0 4.1 6.9 93 0.5 WNW 17 26 9 14 1015.6 1015.6 1.6
24/06:30am 7.6 4.4 6.7 94 0.4 NW 13 20 7 11 1015.2 - 1.6
24/06:00am 7.9 4.7 6.8 93 0.5 NW 13 20 7 11 1015.2 1015.2 1.6
24/05:30am 8.3 4.4 7.1 92 0.6 WNW 17 26 9 14 1014.9 - 1.6
24/05:00am 8.9 5.5 7.8 93 0.5 WNW 15 24 8 13 1014.8 1014.8 1.6
24/04:30am 9.0 5.3 7.9 93 0.5 WNW 17 24 9 13 1014.7 - 1.6
24/04:00am 9.1 5.9 8.3 95 0.4 WNW 15 20 8 11 1014.6 1014.6 1.4
24/03:30am 9.1 5.5 8.5 96 0.3 WNW 17 22 9 12 1014.6 - 1.4
24/03:00am 9.0 5.4 8.4 96 0.3 NW 17 26 9 14 1014.7 1014.7 1.4
24/02:30am 9.1 5.9 8.5 96 0.3 NW 15 22 8 12 1014.9 - 1.4
24/02:00am 9.2 5.6 8.4 95 0.4 WNW 17 22 9 12 1014.7 1014.7 1.4
24/01:30am 9.5 6.0 8.7 95 0.4 NW 17 28 9 15 1015.0 - 1.4
24/01:00am 9.7 6.2 8.8 94 0.4 WNW 17 26 9 14 1015.0 1015.0 1.4
24/12:30am 9.6 6.1 8.8 95 0.4 WNW 17 26 9 14 1014.9 - 1.4
24/12:00am 9.4 5.9 8.6 95 0.4 NW 17 24 9 13 1014.9 1014.9 1.4
 
Date/Time
WST
Temp
°C
App
Temp
°C
Dew
Point
Rel
Hum
%
Delta-T
°C
Wind Press
QNH
hPa
Press
MSL
hPa
Rain
since 9 am
mm
Dir
 
Spd
km/h
Gust
km/h
Spd
kts
Gust
kts
23/11:30pm 9.7 7.0 8.9 95 0.4 WNW 13 19 7 10 1014.9 - 1.4
23/11:00pm 9.8 7.1 9.0 95 0.4 WNW 13 20 7 11 1015.1 1015.1 1.4
23/10:30pm 9.8 7.1 8.9 94 0.4 WNW 13 19 7 10 1015.3 - 1.4
23/10:00pm 10.7 8.4 9.1 90 0.8 WNW 11 17 6 9 1015.3 1015.3 1.4
23/09:30pm 11.9 9.9 10.1 89 0.9 WNW 11 15 6 8 1015.2 - 1.4
23/09:00pm 12.3 9.3 10.7 90 0.8 W 17 24 9 13 1015.0 1015.0 1.4
23/08:30pm 12.3 9.8 10.9 91 0.7 W 15 26 8 14 1014.9 - 1.4
23/08:00pm 12.5 10.0 11.1 91 0.7 W 15 26 8 14 1015.0 1015.0 1.4
23/07:30pm 12.6 10.1 11.0 90 0.8 W 15 24 8 13 1015.0 - 1.4
23/07:00pm 12.6 10.1 11.2 91 0.7 W 15 22 8 12 1014.6 1014.6 1.4
23/06:30pm 12.4 9.9 11.0 91 0.7 W 15 20 8 11 1014.4 - 1.4
23/06:00pm 12.5 10.3 10.9 90 0.8 W 13 20 7 11 1014.1 1014.1 1.4
23/05:30pm 12.6 10.7 10.5 87 1.1 WSW 11 15 6 8 1013.9 - 1.4
23/05:00pm 13.3 11.0 10.5 83 1.5 WSW 13 20 7 11 1013.6 1013.6 1.4
23/04:30pm 13.8 11.5 10.6 81 1.7 SW 13 20 7 11 1013.3 - 1.4
23/04:00pm 14.7 12.2 10.9 78 2.0 SW 15 20 8 11 1013.0 1013.0 1.4
23/03:30pm 15.1 12.6 11.1 77 2.1 SW 15 26 8 14 1012.8 - 1.4
23/03:00pm 15.3 12.5 11.3 77 2.2 SW 17 26 9 14 1012.4 1012.4 1.4
23/02:30pm 14.1 10.9 11.4 84 1.4 SSW 19 30 10 16 1012.2 - 1.4
23/02:00pm 14.6 11.8 11.2 80 1.8 SSW 17 26 9 14 1011.8 1011.8 1.4
23/01:30pm 15.9 12.3 11.7 76 2.3 WSW 22 37 12 20 1011.4 - 1.4
23/01:00pm 15.2 11.3 10.8 75 2.3 SW 22 37 12 20 1011.3 1011.3 1.4
23/12:30pm 15.0 11.2 11.2 78 2.0 WSW 22 33 12 18 1011.2 - 1.4
23/12:00pm 14.2 10.8 11.4 83 1.5 WSW 20 33 11 18 1011.2 1011.2 1.4
23/11:30am 13.9 10.7 11.9 88 1.1 WSW 20 33 11 18 1011.3 - 1.4
23/11:00am 12.6 9.4 11.8 95 0.4 WSW 20 33 11 18 1011.7 1011.7 1.4
23/10:30am 12.4 9.2 11.8 96 0.3 W 20 33 11 18 1011.9 - 0.8
23/10:00am 12.0 8.6 11.4 96 0.3 W 20 39 11 21 1011.7 1011.7 0.6
23/09:30am 11.7 8.3 11.2 97 0.3 W 20 32 11 17 1011.7 - 0.4
23/09:00am 11.4 8.1 10.9 97 0.3 WSW 19 30 10 16 1011.5 1011.5 13.2
23/08:30am 11.4 7.9 10.9 97 0.3 W 20 32 11 17 1011.1 - 12.8
23/08:00am 11.3 7.0 10.8 97 0.3 WSW 24 37 13 20 1010.4 1010.4 12.0
23/07:30am 10.9 6.9 10.3 96 0.3 WSW 22 37 12 20 1009.8 - 9.4
23/07:14am 10.9 5.7 10.1 95 0.4 W 28 46 15 25 1009.5 - 8.2
23/07:00am 10.9 6.4 10.0 94 0.5 W 24 37 13 20 1009.1 1009.1 6.8
23/06:30am 10.7 6.1 9.6 93 0.6 W 24 43 13 23 1008.8 - 6.8
23/06:00am 10.7 6.5 9.8 94 0.5 W 22 43 12 23 1008.5 1008.5 6.8
23/05:30am 10.7 5.8 9.8 94 0.5 W 26 41 14 22 1008.3 - 6.8
23/05:00am 10.7 6.2 9.9 95 0.4 W 24 37 13 20 1008.0 1008.0 6.6
23/04:30am 10.8 6.3 10.2 96 0.3 WNW 24 41 13 22 1007.9 - 6.4
23/04:00am 10.8 6.7 10.0 95 0.4 WNW 22 39 12 21 1007.6 1007.7 6.4
23/03:30am 10.8 6.7 10.2 96 0.3 WNW 22 32 12 17 1007.9 - 6.4
23/03:00am 10.9 6.5 10.3 96 0.3 WNW 24 35 13 19 1007.7 1007.8 6.4
23/02:30am 11.2 7.6 10.6 96 0.3 WNW 20 32 11 17 1007.6 - 6.2
23/02:00am 11.4 8.1 10.8 96 0.3 WNW 19 28 10 15 1007.7 1007.8 6.2
23/01:30am 11.6 8.7 11.0 96 0.3 W 17 28 9 15 1008.0 - 6.2
23/01:00am 12.0 9.2 11.4 96 0.3 NNW 17 26 9 14 1007.9 1007.9 6.0
23/12:30am 12.0 9.6 11.5 97 0.3 N 15 20 8 11 1008.1 - 6.0
23/12:00am 11.8 9.7 11.3 97 0.3 N 13 19 7 10 1008.6 1008.6 6.0
 
Date/Time
WST
Temp
°C
App
Temp
°C
Dew
Point
Rel
Hum
%
Delta-T
°C
Wind Press
QNH
hPa
Press
MSL
hPa
Rain
since 9 am
mm
Dir
 
Spd
km/h
Gust
km/h
Spd
kts
Gust
kts
22/11:30pm 11.7 9.6 11.1 96 0.3 NNE 13 24 7 13 1009.3 - 5.8
22/11:00pm 11.6 10.2 11.0 96 0.3 NNE 9 19 5 10 1010.0 1010.0 5.6
22/10:30pm 11.6 9.5 11.0 96 0.3 NE 13 19 7 10 1010.7 - 5.2
22/10:00pm 11.7 9.6 11.1 96 0.3 ENE 13 17 7 9 1011.3 1011.3 4.4
22/09:30pm 11.8 10.0 11.0 95 0.4 ENE 11 17 6 9 1012.0 - 4.2
22/09:00pm 11.7 10.3 10.8 94 0.5 SW 9 11 5 6 1012.6 1012.6 3.4
22/08:30pm 11.7 11.5 10.6 93 0.6 SW 2 9 1 5 1013.1 - 2.2
22/08:00pm 11.7 11.9 10.6 93 0.6 CALM 0 0 0 0 1013.6 1013.6 1.0
22/07:30pm 11.8 12.0 10.5 92 0.7 CALM 0 0 0 0 1013.5 - 0.2
22/07:00pm 11.8 11.9 10.2 90 0.8 CALM 0 0 0 0 1013.3 1013.3 0.2
22/06:30pm 11.9 12.0 10.3 90 0.8 CALM 0 0 0 0 1013.6 - 0.2
22/06:00pm 12.1 12.0 10.7 91 0.7 NNW 2 6 1 3 1013.6 1013.6 0.2
22/05:30pm 12.9 11.8 10.6 86 1.2 NW 7 9 4 5 1013.6 - 0.2
22/05:00pm 14.0 11.4 9.4 74 2.4 NNW 13 19 7 10 1013.9 1013.9 0.0
22/04:30pm 14.6 10.6 8.3 66 3.2 NNW 19 35 10 19 1013.9 - 0.0
22/04:00pm 17.5 12.4 5.8 46 5.7 N 22 41 12 22 1013.7 1013.7 0.0
22/03:30pm 18.3 14.7 5.2 42 6.4 N 13 22 7 12 1013.7 - 0.0
22/03:00pm 19.1 15.0 4.1 37 7.2 N 15 24 8 13 1013.8 1013.8 0.0
22/02:30pm 19.7 16.4 4.6 37 7.3 N 11 17 6 9 1013.3 - 0.0
22/02:00pm 19.9 15.9 4.8 37 7.4 N 15 26 8 14 1013.8 1013.8 0.0
22/01:30pm 19.8 15.4 4.7 37 7.3 N 17 24 9 13 1014.4 - 0.0
22/01:00pm 20.0 16.1 5.3 38 7.2 N 15 22 8 12 1014.7 1014.7 0.0
22/12:30pm 20.0 16.2 6.0 40 7.0 N 15 24 8 13 1014.8 - 0.0
22/12:00pm 19.7 16.0 6.4 42 6.7 N 15 22 8 12 1015.6 1015.6 0.0
22/11:30am 19.3 15.5 7.7 47 6.0 N 17 24 9 13 1016.3 - 0.0
22/11:00am 19.1 15.8 8.1 49 5.7 N 15 22 8 12 1016.8 1016.9 0.0
22/10:30am 18.8 16.0 8.5 51 5.4 NE 13 17 7 9 1016.3 - 0.0
22/10:00am 18.2 15.8 8.7 54 4.9 NNE 11 19 6 10 1017.2 1017.3 0.0
22/09:30am 17.8 15.0 8.6 55 4.8 NNE 13 19 7 10 1018.2 - 0.0
22/09:00am 17.5 14.8 8.9 57 4.5 N 13 17 7 9 1018.1 1018.2 0.0
22/08:30am 14.6 12.2 8.5 67 3.1 N 11 15 6 8 1018.1 - 0.0
22/08:00am 11.4 8.6 7.1 75 2.1 N 11 13 6 7 1018.5 1018.6 0.0
22/07:30am 8.8 5.4 6.1 83 1.2 N 13 17 7 9 1018.7 - 0.0
22/07:00am 6.1 2.4 4.7 91 0.6 N 13 17 7 9 1018.8 1018.9 0.0
22/06:30am 5.3 1.6 4.4 94 0.4 N 13 15 7 8 1018.6 - 0.0
22/06:00am 4.8 1.0 3.8 93 0.4 N 13 15 7 8 1018.2 1018.3 0.0
22/05:30am 4.7 1.2 3.7 93 0.4 N 11 15 6 8 1018.0 - 0.0
22/05:00am 4.9 1.1 3.9 93 0.4 N 13 15 7 8 1018.0 1018.1 0.0
22/04:30am 5.2 1.5 4.2 93 0.4 N 13 15 7 8 1017.9 - 0.0
22/04:00am 5.6 1.9 4.7 94 0.4 N 13 15 7 8 1017.9 1018.0 0.0
22/03:30am 5.8 2.5 4.8 93 0.4 N 11 13 6 7 1017.9 - 0.0
22/03:00am 6.4 3.2 5.2 92 0.5 N 11 13 6 7 1017.9 1018.0 0.0
22/02:30am 6.7 3.6 5.5 92 0.5 N 11 13 6 7 1018.0 - 0.0
22/02:00am 6.5 3.3 5.1 91 0.6 N 11 13 6 7 1018.0 1018.1 0.0
22/01:30am 6.7 3.5 5.3 91 0.6 N 11 15 6 8 1018.0 - 0.0
22/01:00am 6.9 3.8 5.5 91 0.6 N 11 13 6 7 1017.8 1017.9 0.0
22/12:30am 7.5 4.1 6.0 90 0.7 NNE 13 15 7 8 1017.8 - 0.0
22/12:00am 7.5 4.5 6.0 90 0.7 N 11 13 6 7 1017.9 1018.0 0.0
 
Date/Time
WST
Temp
°C
App
Temp
°C
Dew
Point
Rel
Hum
%
Delta-T
°C
Wind Press
QNH
hPa
Press
MSL
hPa
Rain
since 9 am
mm
Dir
 
Spd
km/h
Gust
km/h
Spd
kts
Gust
kts
21/11:30pm 8.0 5.1 6.3 89 0.8 NNE 11 13 6 7 1018.2 - 0.0
21/11:00pm 8.6 5.7 6.6 87 0.9 NNE 11 13 6 7 1018.3 1018.4 0.0
21/10:30pm 8.7 5.8 6.5 86 1.0 NNE 11 11 6 6 1018.4 - 0.0
21/10:00pm 9.1 8.0 6.7 85 1.1 ESE 2 7 1 4 1018.6 1018.7 0.0
21/09:30pm 9.4 7.5 7.5 88 0.9 NNE 7 11 4 6 1018.9 - 0.0
21/09:00pm 9.0 6.8 6.4 84 1.2 NE 7 11 4 6 1018.9 1019.0 0.0
21/08:30pm 9.7 8.8 6.2 79 1.6 CALM 0 0 0 0 1018.8 - 0.0
21/08:00pm 11.6 10.6 7.3 75 2.1 N 2 6 1 3 1018.8 1018.9 0.0
21/07:30pm 12.6 9.7 8.1 74 2.2 N 13 15 7 8 1018.8 - 0.0
21/07:00pm 12.5 10.3 8.0 74 2.2 NNE 9 11 5 6 1018.6 1018.7 0.0
21/06:30pm 13.3 11.6 7.7 69 2.8 NNE 6 7 3 4 1018.2 - 0.0
21/06:00pm 14.5 12.3 8.0 65 3.2 ENE 9 13 5 7 1017.8 1017.9 0.0
21/05:30pm 14.9 12.7 7.9 63 3.5 E 9 13 5 7 1017.3 - 0.0
21/05:00pm 15.3 13.0 7.6 60 3.8 ESE 9 11 5 6 1017.1 1017.2 0.0
21/04:30pm 15.5 12.9 7.8 60 3.9 E 11 15 6 8 1016.8 - 0.0
21/04:00pm 15.8 13.4 8.8 63 3.6 ESE 11 17 6 9 1016.6 1016.7 0.0
21/03:30pm 16.3 13.9 8.8 61 3.9 ESE 11 17 6 9 1016.6 - 0.0
21/03:00pm 16.7 14.0 8.9 60 4.0 ESE 13 17 7 9 1016.5 1016.6 0.0
21/02:30pm 16.9 14.4 9.6 62 3.8 SSE 13 17 7 9 1016.4 - 0.0

Other Formats:

Comma delimited format used in spreadsheet applications
http://www.bom.gov.au/fwo/IDW60801/IDW60801.94647.axf

JavaScript Object Notation format (JSON) in row-major order
http://www.bom.gov.au/fwo/IDW60801/IDW60801.94647.json